sensor_id;sensor_type;location;lat;lon;timestamp;P1;durP1;ratioP1;P2;durP2;ratioP2
34739;SDS011;20967;48.442;9.994;2023-05-16T00:00:32;16.37;;;10.00;;
34739;SDS011;20967;48.442;9.994;2023-05-16T00:03:00;17.75;;;9.98;;
34739;SDS011;20967;48.442;9.994;2023-05-16T00:05:28;17.92;;;10.03;;
34739;SDS011;20967;48.442;9.994;2023-05-16T00:07:56;18.65;;;10.00;;
34739;SDS011;20967;48.442;9.994;2023-05-16T00:10:24;19.07;;;10.20;;
34739;SDS011;20967;48.442;9.994;2023-05-16T00:12:52;19.73;;;10.05;;
34739;SDS011;20967;48.442;9.994;2023-05-16T00:15:21;15.93;;;10.15;;
34739;SDS011;20967;48.442;9.994;2023-05-16T00:17:49;16.82;;;9.70;;
34739;SDS011;20967;48.442;9.994;2023-05-16T00:20:17;18.45;;;9.88;;
34739;SDS011;20967;48.442;9.994;2023-05-16T00:22:47;20.27;;;10.55;;
34739;SDS011;20967;48.442;9.994;2023-05-16T00:25:14;17.37;;;11.15;;
34739;SDS011;20967;48.442;9.994;2023-05-16T00:27:42;18.70;;;10.55;;
34739;SDS011;20967;48.442;9.994;2023-05-16T00:30:10;22.17;;;10.28;;
34739;SDS011;20967;48.442;9.994;2023-05-16T00:32:38;16.95;;;10.28;;
34739;SDS011;20967;48.442;9.994;2023-05-16T00:35:06;18.92;;;10.18;;
34739;SDS011;20967;48.442;9.994;2023-05-16T00:37:35;22.75;;;11.48;;
34739;SDS011;20967;48.442;9.994;2023-05-16T00:40:04;18.50;;;10.28;;
34739;SDS011;20967;48.442;9.994;2023-05-16T00:42:32;19.87;;;10.55;;
34739;SDS011;20967;48.442;9.994;2023-05-16T00:45:00;21.93;;;11.20;;
34739;SDS011;20967;48.442;9.994;2023-05-16T00:47:29;21.27;;;11.45;;
34739;SDS011;20967;48.442;9.994;2023-05-16T00:49:56;18.87;;;10.82;;
34739;SDS011;20967;48.442;9.994;2023-05-16T00:52:25;19.95;;;11.33;;
34739;SDS011;20967;48.442;9.994;2023-05-16T00:54:52;22.85;;;11.20;;
34739;SDS011;20967;48.442;9.994;2023-05-16T00:57:20;20.95;;;11.40;;
34739;SDS011;20967;48.442;9.994;2023-05-16T00:59:48;22.67;;;12.25;;
34739;SDS011;20967;48.442;9.994;2023-05-16T01:02:16;20.30;;;11.75;;
34739;SDS011;20967;48.442;9.994;2023-05-16T01:04:44;22.73;;;12.33;;
34739;SDS011;20967;48.442;9.994;2023-05-16T01:07:13;22.42;;;12.55;;
34739;SDS011;20967;48.442;9.994;2023-05-16T01:09:41;25.48;;;13.28;;
34739;SDS011;20967;48.442;9.994;2023-05-16T01:25:30;23.42;;;12.65;;
34739;SDS011;20967;48.442;9.994;2023-05-16T01:28:12;20.88;;;12.45;;
34739;SDS011;20967;48.442;9.994;2023-05-16T01:30:41;26.95;;;14.87;;
34739;SDS011;20967;48.442;9.994;2023-05-16T01:33:10;25.52;;;13.75;;
34739;SDS011;20967;48.442;9.994;2023-05-16T01:35:42;26.10;;;13.70;;
34739;SDS011;20967;48.442;9.994;2023-05-16T01:38:10;31.05;;;14.87;;
34739;SDS011;20967;48.442;9.994;2023-05-16T01:43:19;31.42;;;15.25;;
34739;SDS011;20967;48.442;9.994;2023-05-16T01:48:31;28.90;;;15.23;;
34739;SDS011;20967;48.442;9.994;2023-05-16T01:50:54;28.73;;;14.63;;
34739;SDS011;20967;48.442;9.994;2023-05-16T01:53:29;28.00;;;14.23;;
34739;SDS011;20967;48.442;9.994;2023-05-16T01:58:31;31.48;;;16.23;;
34739;SDS011;20967;48.442;9.994;2023-05-16T02:01:00;32.28;;;16.67;;
34739;SDS011;20967;48.442;9.994;2023-05-16T02:03:29;32.67;;;16.93;;
34739;SDS011;20967;48.442;9.994;2023-05-16T02:05:58;31.77;;;17.07;;
34739;SDS011;20967;48.442;9.994;2023-05-16T02:08:26;34.63;;;18.12;;
34739;SDS011;20967;48.442;9.994;2023-05-16T02:10:55;33.70;;;17.30;;
34739;SDS011;20967;48.442;9.994;2023-05-16T02:13:22;30.08;;;16.20;;
34739;SDS011;20967;48.442;9.994;2023-05-16T02:15:50;28.52;;;14.58;;
34739;SDS011;20967;48.442;9.994;2023-05-16T02:18:18;27.07;;;14.78;;
34739;SDS011;20967;48.442;9.994;2023-05-16T02:20:48;27.82;;;14.90;;
34739;SDS011;20967;48.442;9.994;2023-05-16T02:23:16;26.35;;;14.78;;
34739;SDS011;20967;48.442;9.994;2023-05-16T02:25:44;29.90;;;15.53;;
34739;SDS011;20967;48.442;9.994;2023-05-16T02:28:12;28.62;;;15.10;;
34739;SDS011;20967;48.442;9.994;2023-05-16T02:30:39;28.60;;;14.50;;
34739;SDS011;20967;48.442;9.994;2023-05-16T02:33:07;27.90;;;14.93;;
34739;SDS011;20967;48.442;9.994;2023-05-16T02:35:35;23.80;;;13.98;;
34739;SDS011;20967;48.442;9.994;2023-05-16T02:38:03;25.37;;;14.13;;
34739;SDS011;20967;48.442;9.994;2023-05-16T02:40:31;29.95;;;14.87;;
34739;SDS011;20967;48.442;9.994;2023-05-16T02:42:59;28.42;;;15.30;;
34739;SDS011;20967;48.442;9.994;2023-05-16T02:45:26;36.93;;;17.07;;
34739;SDS011;20967;48.442;9.994;2023-05-16T02:47:54;34.50;;;17.37;;
34739;SDS011;20967;48.442;9.994;2023-05-16T02:50:22;36.48;;;18.52;;
34739;SDS011;20967;48.442;9.994;2023-05-16T02:52:50;37.67;;;19.50;;
34739;SDS011;20967;48.442;9.994;2023-05-16T02:55:18;39.60;;;19.12;;
34739;SDS011;20967;48.442;9.994;2023-05-16T02:57:46;42.15;;;19.95;;
34739;SDS011;20967;48.442;9.994;2023-05-16T03:00:15;40.25;;;19.95;;
34739;SDS011;20967;48.442;9.994;2023-05-16T03:02:43;41.63;;;19.75;;
34739;SDS011;20967;48.442;9.994;2023-05-16T03:05:11;35.63;;;19.95;;
34739;SDS011;20967;48.442;9.994;2023-05-16T03:07:39;40.83;;;20.25;;
34739;SDS011;20967;48.442;9.994;2023-05-16T03:10:07;40.58;;;19.70;;
34739;SDS011;20967;48.442;9.994;2023-05-16T03:12:35;43.55;;;21.20;;
34739;SDS011;20967;48.442;9.994;2023-05-16T03:15:03;41.28;;;20.43;;
34739;SDS011;20967;48.442;9.994;2023-05-16T03:17:31;40.73;;;21.20;;
34739;SDS011;20967;48.442;9.994;2023-05-16T03:19:59;44.13;;;21.23;;
34739;SDS011;20967;48.442;9.994;2023-05-16T03:22:27;42.65;;;21.23;;
34739;SDS011;20967;48.442;9.994;2023-05-16T03:24:55;50.00;;;23.07;;
34739;SDS011;20967;48.442;9.994;2023-05-16T03:27:22;47.13;;;21.07;;
34739;SDS011;20967;48.442;9.994;2023-05-16T03:29:51;51.20;;;22.75;;
34739;SDS011;20967;48.442;9.994;2023-05-16T03:32:19;55.23;;;23.52;;
34739;SDS011;20967;48.442;9.994;2023-05-16T03:34:46;48.45;;;23.52;;
34739;SDS011;20967;48.442;9.994;2023-05-16T03:37:14;45.52;;;21.93;;
34739;SDS011;20967;48.442;9.994;2023-05-16T03:39:42;51.48;;;24.30;;
34739;SDS011;20967;48.442;9.994;2023-05-16T03:42:10;55.08;;;24.67;;
34739;SDS011;20967;48.442;9.994;2023-05-16T03:44:38;64.35;;;23.98;;
34739;SDS011;20967;48.442;9.994;2023-05-16T03:47:06;56.23;;;25.65;;
34739;SDS011;20967;48.442;9.994;2023-05-16T03:49:34;52.50;;;25.25;;
34739;SDS011;20967;48.442;9.994;2023-05-16T03:52:05;46.13;;;23.10;;
34739;SDS011;20967;48.442;9.994;2023-05-16T03:54:33;53.28;;;25.77;;
34739;SDS011;20967;48.442;9.994;2023-05-16T03:57:01;50.23;;;25.55;;
34739;SDS011;20967;48.442;9.994;2023-05-16T03:59:28;53.65;;;24.05;;
34739;SDS011;20967;48.442;9.994;2023-05-16T04:01:56;50.43;;;25.92;;
34739;SDS011;20967;48.442;9.994;2023-05-16T04:04:24;50.30;;;24.72;;
34739;SDS011;20967;48.442;9.994;2023-05-16T04:06:52;51.10;;;24.95;;
34739;SDS011;20967;48.442;9.994;2023-05-16T04:09:20;54.38;;;26.10;;
34739;SDS011;20967;48.442;9.994;2023-05-16T04:11:47;57.67;;;25.95;;
34739;SDS011;20967;48.442;9.994;2023-05-16T04:14:15;56.73;;;25.60;;
34739;SDS011;20967;48.442;9.994;2023-05-16T04:16:43;57.93;;;25.95;;
34739;SDS011;20967;48.442;9.994;2023-05-16T04:19:11;46.83;;;25.32;;
34739;SDS011;20967;48.442;9.994;2023-05-16T04:21:38;56.28;;;25.43;;
34739;SDS011;20967;48.442;9.994;2023-05-16T04:24:06;51.60;;;25.97;;
34739;SDS011;20967;48.442;9.994;2023-05-16T04:26:35;53.50;;;24.72;;
34739;SDS011;20967;48.442;9.994;2023-05-16T04:29:03;53.48;;;24.20;;
34739;SDS011;20967;48.442;9.994;2023-05-16T04:31:31;48.10;;;23.30;;
34739;SDS011;20967;48.442;9.994;2023-05-16T04:33:58;49.95;;;24.23;;
34739;SDS011;20967;48.442;9.994;2023-05-16T04:36:26;49.65;;;24.40;;
34739;SDS011;20967;48.442;9.994;2023-05-16T04:38:55;45.92;;;23.00;;
34739;SDS011;20967;48.442;9.994;2023-05-16T04:41:23;46.35;;;22.55;;
34739;SDS011;20967;48.442;9.994;2023-05-16T04:43:51;44.25;;;22.00;;
34739;SDS011;20967;48.442;9.994;2023-05-16T04:46:19;38.95;;;20.65;;
34739;SDS011;20967;48.442;9.994;2023-05-16T04:48:47;42.53;;;22.02;;
34739;SDS011;20967;48.442;9.994;2023-05-16T04:51:15;37.33;;;20.92;;
34739;SDS011;20967;48.442;9.994;2023-05-16T04:53:42;41.75;;;21.27;;
34739;SDS011;20967;48.442;9.994;2023-05-16T04:56:10;42.53;;;22.20;;
34739;SDS011;20967;48.442;9.994;2023-05-16T04:58:38;42.45;;;22.58;;
34739;SDS011;20967;48.442;9.994;2023-05-16T05:01:06;40.33;;;21.85;;
34739;SDS011;20967;48.442;9.994;2023-05-16T05:03:33;44.45;;;22.30;;
34739;SDS011;20967;48.442;9.994;2023-05-16T05:06:02;43.52;;;20.92;;
34739;SDS011;20967;48.442;9.994;2023-05-16T05:08:30;42.67;;;21.68;;
34739;SDS011;20967;48.442;9.994;2023-05-16T05:10:58;41.48;;;21.23;;
34739;SDS011;20967;48.442;9.994;2023-05-16T05:13:26;45.48;;;22.32;;
34739;SDS011;20967;48.442;9.994;2023-05-16T05:15:54;43.30;;;21.68;;
34739;SDS011;20967;48.442;9.994;2023-05-16T05:18:21;49.15;;;23.40;;
34739;SDS011;20967;48.442;9.994;2023-05-16T05:20:50;48.68;;;23.55;;
34739;SDS011;20967;48.442;9.994;2023-05-16T05:23:17;49.35;;;22.07;;
34739;SDS011;20967;48.442;9.994;2023-05-16T05:25:45;41.42;;;22.22;;
34739;SDS011;20967;48.442;9.994;2023-05-16T05:28:13;50.30;;;22.55;;
34739;SDS011;20967;48.442;9.994;2023-05-16T05:30:41;43.52;;;22.60;;
34739;SDS011;20967;48.442;9.994;2023-05-16T05:33:12;46.50;;;23.40;;
34739;SDS011;20967;48.442;9.994;2023-05-16T05:35:43;44.60;;;22.70;;
34739;SDS011;20967;48.442;9.994;2023-05-16T05:38:10;42.60;;;23.18;;
34739;SDS011;20967;48.442;9.994;2023-05-16T05:40:38;43.85;;;23.52;;
34739;SDS011;20967;48.442;9.994;2023-05-16T05:43:06;46.33;;;23.38;;
34739;SDS011;20967;48.442;9.994;2023-05-16T05:45:34;44.50;;;22.95;;
34739;SDS011;20967;48.442;9.994;2023-05-16T05:48:02;44.60;;;23.55;;
34739;SDS011;20967;48.442;9.994;2023-05-16T05:50:30;43.92;;;21.25;;
34739;SDS011;20967;48.442;9.994;2023-05-16T05:52:58;44.80;;;21.95;;
34739;SDS011;20967;48.442;9.994;2023-05-16T05:55:26;46.33;;;22.22;;
34739;SDS011;20967;48.442;9.994;2023-05-16T05:57:53;41.85;;;22.55;;
34739;SDS011;20967;48.442;9.994;2023-05-16T06:00:21;46.25;;;21.97;;
34739;SDS011;20967;48.442;9.994;2023-05-16T06:02:49;47.17;;;22.02;;
34739;SDS011;20967;48.442;9.994;2023-05-16T06:05:17;39.50;;;20.55;;
34739;SDS011;20967;48.442;9.994;2023-05-16T06:07:45;43.65;;;22.85;;
34739;SDS011;20967;48.442;9.994;2023-05-16T06:10:13;44.75;;;22.48;;
34739;SDS011;20967;48.442;9.994;2023-05-16T06:12:41;45.17;;;21.70;;
34739;SDS011;20967;48.442;9.994;2023-05-16T06:15:09;44.45;;;22.87;;
34739;SDS011;20967;48.442;9.994;2023-05-16T06:17:37;46.83;;;23.62;;
34739;SDS011;20967;48.442;9.994;2023-05-16T06:20:05;39.15;;;19.70;;
34739;SDS011;20967;48.442;9.994;2023-05-16T06:22:33;41.28;;;21.82;;
34739;SDS011;20967;48.442;9.994;2023-05-16T06:25:05;43.90;;;20.27;;
34739;SDS011;20967;48.442;9.994;2023-05-16T06:27:33;37.50;;;19.23;;
34739;SDS011;20967;48.442;9.994;2023-05-16T06:30:00;36.55;;;19.00;;
34739;SDS011;20967;48.442;9.994;2023-05-16T06:32:28;35.92;;;20.08;;
34739;SDS011;20967;48.442;9.994;2023-05-16T06:34:56;34.30;;;18.42;;
34739;SDS011;20967;48.442;9.994;2023-05-16T06:37:24;37.65;;;18.57;;
34739;SDS011;20967;48.442;9.994;2023-05-16T06:39:52;37.85;;;18.52;;
34739;SDS011;20967;48.442;9.994;2023-05-16T06:42:19;33.95;;;18.05;;
34739;SDS011;20967;48.442;9.994;2023-05-16T06:44:47;34.95;;;18.45;;
34739;SDS011;20967;48.442;9.994;2023-05-16T06:47:16;36.53;;;18.30;;
34739;SDS011;20967;48.442;9.994;2023-05-16T06:49:43;32.45;;;17.62;;
34739;SDS011;20967;48.442;9.994;2023-05-16T06:52:11;33.30;;;17.57;;
34739;SDS011;20967;48.442;9.994;2023-05-16T06:54:41;33.83;;;19.23;;
34739;SDS011;20967;48.442;9.994;2023-05-16T06:57:09;36.88;;;19.57;;
34739;SDS011;20967;48.442;9.994;2023-05-16T06:59:38;29.63;;;17.02;;
34739;SDS011;20967;48.442;9.994;2023-05-16T07:02:06;32.05;;;17.32;;
34739;SDS011;20967;48.442;9.994;2023-05-16T07:04:34;34.13;;;18.02;;
34739;SDS011;20967;48.442;9.994;2023-05-16T07:07:03;36.08;;;19.12;;
34739;SDS011;20967;48.442;9.994;2023-05-16T07:09:32;34.50;;;18.40;;
34739;SDS011;20967;48.442;9.994;2023-05-16T07:12:00;35.20;;;17.60;;
34739;SDS011;20967;48.442;9.994;2023-05-16T07:14:28;31.50;;;17.85;;
34739;SDS011;20967;48.442;9.994;2023-05-16T07:16:59;31.20;;;16.67;;
34739;SDS011;20967;48.442;9.994;2023-05-16T07:19:26;30.05;;;16.17;;
34739;SDS011;20967;48.442;9.994;2023-05-16T07:21:54;34.10;;;17.87;;
34739;SDS011;20967;48.442;9.994;2023-05-16T07:24:22;31.15;;;18.55;;
34739;SDS011;20967;48.442;9.994;2023-05-16T07:26:50;31.85;;;18.55;;
34739;SDS011;20967;48.442;9.994;2023-05-16T07:29:17;37.00;;;18.73;;
34739;SDS011;20967;48.442;9.994;2023-05-16T07:31:45;30.12;;;17.10;;
34739;SDS011;20967;48.442;9.994;2023-05-16T07:34:13;32.35;;;18.00;;
34739;SDS011;20967;48.442;9.994;2023-05-16T07:36:41;30.10;;;16.80;;
34739;SDS011;20967;48.442;9.994;2023-05-16T07:39:09;30.50;;;18.10;;
34739;SDS011;20967;48.442;9.994;2023-05-16T07:41:37;31.00;;;17.20;;
34739;SDS011;20967;48.442;9.994;2023-05-16T07:44:04;31.93;;;16.65;;
34739;SDS011;20967;48.442;9.994;2023-05-16T07:46:32;34.43;;;17.52;;
34739;SDS011;20967;48.442;9.994;2023-05-16T07:49:00;30.12;;;17.00;;
34739;SDS011;20967;48.442;9.994;2023-05-16T07:51:28;27.13;;;16.67;;
34739;SDS011;20967;48.442;9.994;2023-05-16T07:53:56;28.77;;;16.25;;
34739;SDS011;20967;48.442;9.994;2023-05-16T07:56:24;31.73;;;17.15;;
34739;SDS011;20967;48.442;9.994;2023-05-16T07:58:52;30.32;;;17.15;;
34739;SDS011;20967;48.442;9.994;2023-05-16T08:01:20;29.00;;;16.07;;
34739;SDS011;20967;48.442;9.994;2023-05-16T08:03:48;25.97;;;15.72;;
34739;SDS011;20967;48.442;9.994;2023-05-16T08:06:17;23.45;;;15.40;;
34739;SDS011;20967;48.442;9.994;2023-05-16T08:08:45;33.28;;;16.42;;
34739;SDS011;20967;48.442;9.994;2023-05-16T08:11:12;24.02;;;14.38;;
34739;SDS011;20967;48.442;9.994;2023-05-16T08:13:40;28.10;;;14.70;;
34739;SDS011;20967;48.442;9.994;2023-05-16T08:16:08;22.45;;;14.55;;
34739;SDS011;20967;48.442;9.994;2023-05-16T08:18:36;26.57;;;14.35;;
34739;SDS011;20967;48.442;9.994;2023-05-16T08:21:04;26.05;;;15.53;;
34739;SDS011;20967;48.442;9.994;2023-05-16T08:23:32;28.80;;;14.55;;
34739;SDS011;20967;48.442;9.994;2023-05-16T08:26:01;28.23;;;16.77;;
34739;SDS011;20967;48.442;9.994;2023-05-16T08:28:29;32.55;;;15.85;;
34739;SDS011;20967;48.442;9.994;2023-05-16T08:30:57;26.12;;;16.57;;
34739;SDS011;20967;48.442;9.994;2023-05-16T08:33:25;24.25;;;15.60;;
34739;SDS011;20967;48.442;9.994;2023-05-16T08:35:52;22.87;;;13.75;;
34739;SDS011;20967;48.442;9.994;2023-05-16T08:38:20;26.77;;;15.32;;
34739;SDS011;20967;48.442;9.994;2023-05-16T08:40:48;29.32;;;14.70;;
34739;SDS011;20967;48.442;9.994;2023-05-16T08:43:16;24.67;;;13.55;;
34739;SDS011;20967;48.442;9.994;2023-05-16T08:45:44;24.02;;;14.15;;
34739;SDS011;20967;48.442;9.994;2023-05-16T08:48:12;33.08;;;16.87;;
34739;SDS011;20967;48.442;9.994;2023-05-16T08:50:42;24.00;;;15.32;;
34739;SDS011;20967;48.442;9.994;2023-05-16T08:53:10;23.10;;;15.45;;
34739;SDS011;20967;48.442;9.994;2023-05-16T08:55:40;26.62;;;15.60;;
34739;SDS011;20967;48.442;9.994;2023-05-16T08:58:10;25.60;;;15.63;;
34739;SDS011;20967;48.442;9.994;2023-05-16T09:00:39;31.90;;;17.90;;
34739;SDS011;20967;48.442;9.994;2023-05-16T09:03:08;32.13;;;15.72;;
34739;SDS011;20967;48.442;9.994;2023-05-16T09:05:36;24.60;;;15.63;;
34739;SDS011;20967;48.442;9.994;2023-05-16T09:08:04;25.52;;;15.32;;
34739;SDS011;20967;48.442;9.994;2023-05-16T09:10:33;27.25;;;16.45;;
34739;SDS011;20967;48.442;9.994;2023-05-16T09:13:01;27.13;;;16.55;;
34739;SDS011;20967;48.442;9.994;2023-05-16T09:15:32;27.42;;;15.80;;
34739;SDS011;20967;48.442;9.994;2023-05-16T09:18:00;29.00;;;16.52;;
34739;SDS011;20967;48.442;9.994;2023-05-16T09:20:28;27.20;;;15.95;;
34739;SDS011;20967;48.442;9.994;2023-05-16T09:22:57;27.45;;;15.38;;
34739;SDS011;20967;48.442;9.994;2023-05-16T09:25:26;26.90;;;15.03;;
34739;SDS011;20967;48.442;9.994;2023-05-16T09:27:57;30.72;;;15.70;;
34739;SDS011;20967;48.442;9.994;2023-05-16T09:30:27;26.60;;;15.48;;
34739;SDS011;20967;48.442;9.994;2023-05-16T09:32:56;30.65;;;15.80;;
34739;SDS011;20967;48.442;9.994;2023-05-16T09:35:24;25.43;;;15.13;;
34739;SDS011;20967;48.442;9.994;2023-05-16T09:37:52;35.05;;;16.30;;
34739;SDS011;20967;48.442;9.994;2023-05-16T09:40:21;30.37;;;17.15;;
34739;SDS011;20967;48.442;9.994;2023-05-16T09:43:02;26.27;;;15.80;;
34739;SDS011;20967;48.442;9.994;2023-05-16T09:45:33;25.30;;;15.80;;
34739;SDS011;20967;48.442;9.994;2023-05-16T09:48:05;24.95;;;15.20;;
34739;SDS011;20967;48.442;9.994;2023-05-16T09:50:35;27.37;;;15.23;;
34739;SDS011;20967;48.442;9.994;2023-05-16T09:53:04;20.92;;;13.98;;
34739;SDS011;20967;48.442;9.994;2023-05-16T09:55:32;27.48;;;14.87;;
34739;SDS011;20967;48.442;9.994;2023-05-16T09:57:59;26.17;;;15.38;;
34739;SDS011;20967;48.442;9.994;2023-05-16T10:00:31;28.40;;;14.95;;
34739;SDS011;20967;48.442;9.994;2023-05-16T10:03:00;23.27;;;14.65;;
34739;SDS011;20967;48.442;9.994;2023-05-16T10:05:30;26.23;;;15.28;;
34739;SDS011;20967;48.442;9.994;2023-05-16T10:07:58;25.60;;;14.63;;
34739;SDS011;20967;48.442;9.994;2023-05-16T10:10:29;24.77;;;14.30;;
34739;SDS011;20967;48.442;9.994;2023-05-16T10:12:59;22.90;;;14.38;;
34739;SDS011;20967;48.442;9.994;2023-05-16T10:18:03;23.85;;;13.88;;
34739;SDS011;20967;48.442;9.994;2023-05-16T10:20:35;27.25;;;15.53;;
34739;SDS011;20967;48.442;9.994;2023-05-16T10:23:04;27.93;;;15.72;;
34739;SDS011;20967;48.442;9.994;2023-05-16T10:25:33;25.37;;;13.65;;
34739;SDS011;20967;48.442;9.994;2023-05-16T10:28:03;29.07;;;15.85;;
34739;SDS011;20967;48.442;9.994;2023-05-16T10:30:33;28.55;;;13.80;;
34739;SDS011;20967;48.442;9.994;2023-05-16T10:33:02;31.33;;;14.98;;
34739;SDS011;20967;48.442;9.994;2023-05-16T10:35:30;24.92;;;14.38;;
34739;SDS011;20967;48.442;9.994;2023-05-16T10:37:59;24.20;;;14.30;;
34739;SDS011;20967;48.442;9.994;2023-05-16T10:40:27;22.30;;;13.83;;
34739;SDS011;20967;48.442;9.994;2023-05-16T10:42:56;26.23;;;15.08;;
34739;SDS011;20967;48.442;9.994;2023-05-16T10:45:26;27.27;;;14.60;;
34739;SDS011;20967;48.442;9.994;2023-05-16T10:47:54;23.30;;;13.45;;
34739;SDS011;20967;48.442;9.994;2023-05-16T10:50:34;21.62;;;12.90;;
34739;SDS011;20967;48.442;9.994;2023-05-16T11:06:33;18.62;;;11.55;;
34739;SDS011;20967;48.442;9.994;2023-05-16T11:11:44;20.97;;;11.93;;
34739;SDS011;20967;48.442;9.994;2023-05-16T11:20:02;23.42;;;12.90;;
34739;SDS011;20967;48.442;9.994;2023-05-16T11:24:55;26.60;;;13.90;;
34739;SDS011;20967;48.442;9.994;2023-05-16T11:30:00;30.43;;;14.60;;
34739;SDS011;20967;48.442;9.994;2023-05-16T11:35:01;19.30;;;10.82;;
34739;SDS011;20967;48.442;9.994;2023-05-16T11:37:29;21.75;;;13.75;;
34739;SDS011;20967;48.442;9.994;2023-05-16T11:40:00;23.62;;;13.28;;
34739;SDS011;20967;48.442;9.994;2023-05-16T11:45:08;19.12;;;11.88;;
34739;SDS011;20967;48.442;9.994;2023-05-16T11:50:11;23.05;;;12.55;;
34739;SDS011;20967;48.442;9.994;2023-05-16T11:55:09;15.65;;;9.43;;
34739;SDS011;20967;48.442;9.994;2023-05-16T11:57:38;17.55;;;10.60;;
34739;SDS011;20967;48.442;9.994;2023-05-16T12:00:15;25.25;;;11.10;;
34739;SDS011;20967;48.442;9.994;2023-05-16T12:05:13;18.65;;;10.28;;
34739;SDS011;20967;48.442;9.994;2023-05-16T12:07:42;17.92;;;10.60;;
34739;SDS011;20967;48.442;9.994;2023-05-16T12:10:11;17.80;;;10.13;;
34739;SDS011;20967;48.442;9.994;2023-05-16T12:12:44;15.28;;;10.30;;
34739;SDS011;20967;48.442;9.994;2023-05-16T12:17:41;14.80;;;9.00;;
34739;SDS011;20967;48.442;9.994;2023-05-16T12:20:09;13.13;;;8.03;;
34739;SDS011;20967;48.442;9.994;2023-05-16T12:22:39;21.95;;;9.90;;
34739;SDS011;20967;48.442;9.994;2023-05-16T12:27:57;14.15;;;8.15;;
34739;SDS011;20967;48.442;9.994;2023-05-16T12:30:27;16.20;;;8.53;;
34739;SDS011;20967;48.442;9.994;2023-05-16T12:33:00;16.30;;;9.03;;
34739;SDS011;20967;48.442;9.994;2023-05-16T12:38:05;15.65;;;9.00;;
34739;SDS011;20967;48.442;9.994;2023-05-16T12:40:37;14.53;;;9.43;;
34739;SDS011;20967;48.442;9.994;2023-05-16T12:43:16;14.97;;;9.30;;
34739;SDS011;20967;48.442;9.994;2023-05-16T12:48:17;19.05;;;10.38;;
34739;SDS011;20967;48.442;9.994;2023-05-16T12:50:45;15.88;;;9.05;;
34739;SDS011;20967;48.442;9.994;2023-05-16T12:53:14;15.23;;;9.55;;
34739;SDS011;20967;48.442;9.994;2023-05-16T12:55:43;15.48;;;8.90;;
34739;SDS011;20967;48.442;9.994;2023-05-16T12:58:11;16.23;;;9.43;;
34739;SDS011;20967;48.442;9.994;2023-05-16T13:00:39;17.67;;;8.78;;
34739;SDS011;20967;48.442;9.994;2023-05-16T13:03:07;16.52;;;9.58;;
34739;SDS011;20967;48.442;9.994;2023-05-16T13:05:34;15.53;;;8.88;;
34739;SDS011;20967;48.442;9.994;2023-05-16T13:08:02;15.70;;;9.68;;
34739;SDS011;20967;48.442;9.994;2023-05-16T13:10:31;14.85;;;9.13;;
34739;SDS011;20967;48.442;9.994;2023-05-16T13:12:58;15.20;;;9.43;;
34739;SDS011;20967;48.442;9.994;2023-05-16T13:15:26;18.70;;;9.70;;
34739;SDS011;20967;48.442;9.994;2023-05-16T13:17:54;15.35;;;9.25;;
34739;SDS011;20967;48.442;9.994;2023-05-16T13:20:22;18.40;;;9.30;;
34739;SDS011;20967;48.442;9.994;2023-05-16T13:22:50;19.90;;;10.63;;
34739;SDS011;20967;48.442;9.994;2023-05-16T13:25:18;18.07;;;9.85;;
34739;SDS011;20967;48.442;9.994;2023-05-16T13:27:46;17.20;;;9.78;;
34739;SDS011;20967;48.442;9.994;2023-05-16T13:30:14;16.27;;;9.55;;
34739;SDS011;20967;48.442;9.994;2023-05-16T13:32:42;21.95;;;9.70;;
34739;SDS011;20967;48.442;9.994;2023-05-16T13:35:10;22.05;;;10.60;;
34739;SDS011;20967;48.442;9.994;2023-05-16T13:37:38;17.82;;;9.80;;
34739;SDS011;20967;48.442;9.994;2023-05-16T13:40:06;20.77;;;10.90;;
34739;SDS011;20967;48.442;9.994;2023-05-16T13:42:40;20.97;;;11.22;;
34739;SDS011;20967;48.442;9.994;2023-05-16T13:45:04;15.78;;;9.75;;
34739;SDS011;20967;48.442;9.994;2023-05-16T13:47:33;15.48;;;9.20;;
34739;SDS011;20967;48.442;9.994;2023-05-16T13:50:01;22.55;;;11.25;;
34739;SDS011;20967;48.442;9.994;2023-05-16T13:52:31;21.70;;;11.30;;
34739;SDS011;20967;48.442;9.994;2023-05-16T13:54:59;23.85;;;11.57;;
34739;SDS011;20967;48.442;9.994;2023-05-16T13:57:26;19.40;;;9.48;;
34739;SDS011;20967;48.442;9.994;2023-05-16T13:59:54;21.75;;;10.15;;
34739;SDS011;20967;48.442;9.994;2023-05-16T14:02:22;22.45;;;10.53;;
34739;SDS011;20967;48.442;9.994;2023-05-16T14:04:52;17.73;;;9.93;;
34739;SDS011;20967;48.442;9.994;2023-05-16T14:07:20;17.42;;;9.30;;
34739;SDS011;20967;48.442;9.994;2023-05-16T14:09:47;18.82;;;10.20;;
34739;SDS011;20967;48.442;9.994;2023-05-16T14:12:15;19.40;;;10.15;;
34739;SDS011;20967;48.442;9.994;2023-05-16T14:14:43;21.12;;;10.72;;
34739;SDS011;20967;48.442;9.994;2023-05-16T14:17:11;19.85;;;12.07;;
34739;SDS011;20967;48.442;9.994;2023-05-16T14:19:38;19.12;;;10.60;;
34739;SDS011;20967;48.442;9.994;2023-05-16T14:22:06;17.52;;;10.75;;
34739;SDS011;20967;48.442;9.994;2023-05-16T14:24:34;20.88;;;10.93;;
34739;SDS011;20967;48.442;9.994;2023-05-16T14:27:02;22.10;;;11.33;;
34739;SDS011;20967;48.442;9.994;2023-05-16T14:29:30;17.92;;;10.38;;
34739;SDS011;20967;48.442;9.994;2023-05-16T14:31:57;17.12;;;9.73;;
34739;SDS011;20967;48.442;9.994;2023-05-16T14:34:25;17.55;;;10.13;;
34739;SDS011;20967;48.442;9.994;2023-05-16T14:36:53;26.52;;;11.70;;
34739;SDS011;20967;48.442;9.994;2023-05-16T14:39:21;21.00;;;10.82;;
34739;SDS011;20967;48.442;9.994;2023-05-16T14:41:49;19.25;;;10.63;;
34739;SDS011;20967;48.442;9.994;2023-05-16T14:44:16;24.10;;;11.25;;
34739;SDS011;20967;48.442;9.994;2023-05-16T14:46:46;21.20;;;10.32;;
34739;SDS011;20967;48.442;9.994;2023-05-16T14:49:14;18.67;;;10.50;;
34739;SDS011;20967;48.442;9.994;2023-05-16T14:51:41;18.07;;;10.68;;
34739;SDS011;20967;48.442;9.994;2023-05-16T14:54:14;20.12;;;10.95;;
34739;SDS011;20967;48.442;9.994;2023-05-16T14:56:42;22.35;;;11.05;;
34739;SDS011;20967;48.442;9.994;2023-05-16T14:59:10;21.25;;;10.15;;
34739;SDS011;20967;48.442;9.994;2023-05-16T15:01:39;17.85;;;10.25;;
34739;SDS011;20967;48.442;9.994;2023-05-16T15:04:07;17.67;;;10.18;;
34739;SDS011;20967;48.442;9.994;2023-05-16T15:06:34;17.55;;;9.35;;
34739;SDS011;20967;48.442;9.994;2023-05-16T15:09:02;18.27;;;9.50;;
34739;SDS011;20967;48.442;9.994;2023-05-16T15:11:31;18.92;;;9.55;;
34739;SDS011;20967;48.442;9.994;2023-05-16T15:13:58;18.32;;;10.40;;
34739;SDS011;20967;48.442;9.994;2023-05-16T15:16:26;17.02;;;8.23;;
34739;SDS011;20967;48.442;9.994;2023-05-16T15:18:56;19.62;;;9.08;;
34739;SDS011;20967;48.442;9.994;2023-05-16T15:21:24;17.62;;;9.60;;
34739;SDS011;20967;48.442;9.994;2023-05-16T15:23:52;15.08;;;7.90;;
34739;SDS011;20967;48.442;9.994;2023-05-16T15:26:21;15.03;;;8.33;;
34739;SDS011;20967;48.442;9.994;2023-05-16T15:28:49;12.63;;;7.47;;
34739;SDS011;20967;48.442;9.994;2023-05-16T15:31:17;15.93;;;7.25;;
34739;SDS011;20967;48.442;9.994;2023-05-16T15:33:45;14.03;;;7.53;;
34739;SDS011;20967;48.442;9.994;2023-05-16T15:36:12;13.13;;;7.37;;
34739;SDS011;20967;48.442;9.994;2023-05-16T15:38:40;12.75;;;6.78;;
34739;SDS011;20967;48.442;9.994;2023-05-16T15:41:10;17.35;;;6.33;;
34739;SDS011;20967;48.442;9.994;2023-05-16T15:43:38;11.48;;;6.62;;